Acosta, Pennsylvania
Current Conditions -  °F | °C
As of 6:55 AM on Wednesday 28 Jan 2015 (Local Time) from K2G9 Reporting Station
Light Snow Light Snow  
Wind Chill: -8°   Ceiling: 500
Heat Index:   Visibility: 3mi
Dew Point:   Wind: 10mph
Humidity: 85%   Direction: 270°W
Pressure: 30.12"   Gusts: NA
Location:  40.11°N, 79.07°W
Report Text: K2G9 281155Z AUTO 27009KT 3SM -SN OVC005 M14/M16 A3012 RMK AO2
Loading
Personal Weather Stations






























Interactive Weather Map New forecast layout! Learn more

10-Day Weather Forecast

Advertisements
Track Severe Weather on mobile